sensor_id;sensor_type;location;lat;lon;timestamp;pressure;altitude;pressure_sealevel;temperature;humidity
40994;BME280;26722;43.212;27.932;2023-07-31T00:00:54;54955.63;;;-146.72;83.85
40994;BME280;26722;43.212;27.932;2023-07-31T00:03:19;54961.97;;;-146.72;83.68
40994;BME280;26722;43.212;27.932;2023-07-31T00:05:45;54951.41;;;-146.72;83.73
40994;BME280;26722;43.212;27.932;2023-07-31T00:08:11;54955.63;;;-146.72;83.72
40994;BME280;26722;43.212;27.932;2023-07-31T00:10:36;54961.97;;;-146.72;83.92
40994;BME280;26722;43.212;27.932;2023-07-31T00:13:01;54959.88;;;-146.72;84.33
40994;BME280;26722;43.212;27.932;2023-07-31T00:15:27;54972.53;;;-146.72;84.24
40994;BME280;26722;43.212;27.932;2023-07-31T00:17:52;54959.88;;;-146.72;84.54
40994;BME280;26722;43.212;27.932;2023-07-31T00:20:18;54964.09;;;-146.72;84.30
40994;BME280;26722;43.212;27.932;2023-07-31T00:22:43;54955.63;;;-146.72;84.12
40994;BME280;26722;43.212;27.932;2023-07-31T00:25:09;54959.88;;;-146.72;84.37
40994;BME280;26722;43.212;27.932;2023-07-31T00:27:34;54972.53;;;-146.72;84.33
40994;BME280;26722;43.212;27.932;2023-07-31T00:30:00;54966.19;;;-146.72;84.56
40994;BME280;26722;43.212;27.932;2023-07-31T00:32:25;54964.09;;;-146.72;84.72
40994;BME280;26722;43.212;27.932;2023-07-31T00:34:50;54955.63;;;-146.72;84.37
40994;BME280;26722;43.212;27.932;2023-07-31T00:37:16;54968.31;;;-146.72;84.42
40994;BME280;26722;43.212;27.932;2023-07-31T00:39:41;54964.09;;;-146.72;84.77
40994;BME280;26722;43.212;27.932;2023-07-31T00:42:07;54970.41;;;-146.72;84.47
40994;BME280;26722;43.212;27.932;2023-07-31T00:44:33;54978.88;;;-146.72;84.53
40994;BME280;26722;43.212;27.932;2023-07-31T00:46:58;54953.53;;;-146.72;84.72
40994;BME280;26722;43.212;27.932;2023-07-31T00:49:25;54968.31;;;-146.72;84.49
40994;BME280;26722;43.212;27.932;2023-07-31T00:51:51;54968.31;;;-146.72;84.90
40994;BME280;26722;43.212;27.932;2023-07-31T00:54:17;54959.88;;;-146.72;84.45
40994;BME280;26722;43.212;27.932;2023-07-31T00:56:45;54959.88;;;-146.72;84.77
40994;BME280;26722;43.212;27.932;2023-07-31T00:59:11;54959.88;;;-146.72;84.92
40994;BME280;26722;43.212;27.932;2023-07-31T01:01:37;54947.19;;;-146.72;85.12
40994;BME280;26722;43.212;27.932;2023-07-31T01:04:03;54980.97;;;-146.72;85.23
40994;BME280;26722;43.212;27.932;2023-07-31T01:09:20;54980.97;;;-146.72;85.25
40994;BME280;26722;43.212;27.932;2023-07-31T01:11:56;54959.88;;;-146.72;85.37
40994;BME280;26722;43.212;27.932;2023-07-31T01:14:22;54987.31;;;-146.72;85.73
40994;BME280;26722;43.212;27.932;2023-07-31T01:16:47;54964.09;;;-146.72;85.48
40994;BME280;26722;43.212;27.932;2023-07-31T01:19:15;54976.75;;;-146.72;85.99
40994;BME280;26722;43.212;27.932;2023-07-31T01:27:30;54983.09;;;-146.72;86.99
40994;BME280;26722;43.212;27.932;2023-07-31T01:30:05;54976.75;;;-146.72;87.44
40994;BME280;26722;43.212;27.932;2023-07-31T01:32:36;54968.31;;;-146.72;88.25
40994;BME280;26722;43.212;27.932;2023-07-31T01:35:05;54978.88;;;-146.72;88.40
40994;BME280;26722;43.212;27.932;2023-07-31T01:37:31;54968.31;;;-146.72;89.00
40994;BME280;26722;43.212;27.932;2023-07-31T01:39:56;54970.41;;;-146.72;89.70
40994;BME280;26722;43.212;27.932;2023-07-31T01:42:22;54980.97;;;-146.72;90.31
40994;BME280;26722;43.212;27.932;2023-07-31T01:44:47;54987.31;;;-146.72;91.19
40994;BME280;26722;43.212;27.932;2023-07-31T01:47:12;54968.31;;;-146.72;91.69
40994;BME280;26722;43.212;27.932;2023-07-31T01:49:38;54995.75;;;-146.72;91.85
40994;BME280;26722;43.212;27.932;2023-07-31T01:52:04;54989.41;;;-146.72;91.89
40994;BME280;26722;43.212;27.932;2023-07-31T01:54:29;54989.41;;;-146.72;92.01
40994;BME280;26722;43.212;27.932;2023-07-31T01:56:54;54976.75;;;-146.72;92.02
40994;BME280;26722;43.212;27.932;2023-07-31T01:59:20;54987.31;;;-146.72;91.74
40994;BME280;26722;43.212;27.932;2023-07-31T02:01:45;55002.09;;;-146.72;91.99
40994;BME280;26722;43.212;27.932;2023-07-31T02:04:11;54980.97;;;-146.72;92.15
40994;BME280;26722;43.212;27.932;2023-07-31T02:06:37;54991.53;;;-146.72;91.68
40994;BME280;26722;43.212;27.932;2023-07-31T02:09:03;54976.75;;;-146.72;92.47
40994;BME280;26722;43.212;27.932;2023-07-31T02:11:28;54980.97;;;-146.72;93.18
40994;BME280;26722;43.212;27.932;2023-07-31T02:13:54;54993.63;;;-146.72;93.77
40994;BME280;26722;43.212;27.932;2023-07-31T02:16:19;54987.31;;;-146.72;95.56
40994;BME280;26722;43.212;27.932;2023-07-31T02:18:45;54964.09;;;-146.72;96.34
40994;BME280;26722;43.212;27.932;2023-07-31T02:21:10;54997.88;;;-146.72;97.02
40994;BME280;26722;43.212;27.932;2023-07-31T02:23:35;54993.63;;;-146.72;97.07
40994;BME280;26722;43.212;27.932;2023-07-31T02:26:01;55012.63;;;-146.72;97.48
40994;BME280;26722;43.212;27.932;2023-07-31T02:28:26;54995.75;;;-146.72;97.89
40994;BME280;26722;43.212;27.932;2023-07-31T02:30:52;55004.19;;;-146.72;98.05
40994;BME280;26722;43.212;27.932;2023-07-31T02:33:17;54997.88;;;-146.72;98.41
40994;BME280;26722;43.212;27.932;2023-07-31T02:35:43;54995.75;;;-146.72;98.48
40994;BME280;26722;43.212;27.932;2023-07-31T02:38:08;55008.41;;;-146.72;97.91
40994;BME280;26722;43.212;27.932;2023-07-31T02:40:34;55002.09;;;-146.72;98.21
40994;BME280;26722;43.212;27.932;2023-07-31T02:42:59;55010.53;;;-146.72;98.29
40994;BME280;26722;43.212;27.932;2023-07-31T02:45:24;54997.88;;;-146.72;98.11
40994;BME280;26722;43.212;27.932;2023-07-31T02:47:50;55006.31;;;-146.72;96.90
40994;BME280;26722;43.212;27.932;2023-07-31T02:50:15;55002.09;;;-146.72;96.82
40994;BME280;26722;43.212;27.932;2023-07-31T02:52:41;54987.31;;;-146.72;96.58
40994;BME280;26722;43.212;27.932;2023-07-31T02:55:06;55004.19;;;-146.72;96.10
40994;BME280;26722;43.212;27.932;2023-07-31T02:57:32;54993.63;;;-146.72;95.43
40994;BME280;26722;43.212;27.932;2023-07-31T02:59:57;54997.88;;;-146.72;94.57
40994;BME280;26722;43.212;27.932;2023-07-31T03:02:23;54987.31;;;-146.72;94.09
40994;BME280;26722;43.212;27.932;2023-07-31T03:04:48;54991.53;;;-146.72;93.80
40994;BME280;26722;43.212;27.932;2023-07-31T03:07:14;54980.97;;;-146.72;92.63
40994;BME280;26722;43.212;27.932;2023-07-31T03:09:39;54985.19;;;-146.72;93.03
40994;BME280;26722;43.212;27.932;2023-07-31T03:12:05;54983.09;;;-146.72;92.91
40994;BME280;26722;43.212;27.932;2023-07-31T03:14:30;54983.09;;;-146.72;93.36
40994;BME280;26722;43.212;27.932;2023-07-31T03:16:56;54993.63;;;-146.72;92.94
40994;BME280;26722;43.212;27.932;2023-07-31T03:19:22;54989.41;;;-146.72;92.88
40994;BME280;26722;43.212;27.932;2023-07-31T03:21:47;54993.63;;;-146.72;92.04
40994;BME280;26722;43.212;27.932;2023-07-31T03:24:12;54999.97;;;-146.72;91.54
40994;BME280;26722;43.212;27.932;2023-07-31T03:26:38;54980.97;;;-146.72;90.35
40994;BME280;26722;43.212;27.932;2023-07-31T03:29:06;54976.75;;;-146.72;89.69
40994;BME280;26722;43.212;27.932;2023-07-31T03:31:32;54972.53;;;-146.72;89.03
40994;BME280;26722;43.212;27.932;2023-07-31T03:33:57;54978.88;;;-146.72;88.75
40994;BME280;26722;43.212;27.932;2023-07-31T03:36:23;54976.75;;;-146.72;88.35
40994;BME280;26722;43.212;27.932;2023-07-31T03:38:48;54970.41;;;-146.72;88.07
40994;BME280;26722;43.212;27.932;2023-07-31T03:41:13;54968.31;;;-146.72;87.25
40994;BME280;26722;43.212;27.932;2023-07-31T03:43:39;54980.97;;;-146.72;86.91
40994;BME280;26722;43.212;27.932;2023-07-31T03:46:04;54964.09;;;-146.72;86.83
40994;BME280;26722;43.212;27.932;2023-07-31T03:48:30;54953.53;;;-146.72;85.46
40994;BME280;26722;43.212;27.932;2023-07-31T03:50:55;54947.19;;;-146.72;84.14
40994;BME280;26722;43.212;27.932;2023-07-31T03:53:21;54947.19;;;-146.72;82.96
40994;BME280;26722;43.212;27.932;2023-07-31T03:55:46;54955.63;;;-146.72;83.04
40994;BME280;26722;43.212;27.932;2023-07-31T03:58:12;54964.09;;;-146.72;83.43
40994;BME280;26722;43.212;27.932;2023-07-31T04:00:39;54955.63;;;-146.72;83.33
40994;BME280;26722;43.212;27.932;2023-07-31T04:03:05;54964.09;;;-146.72;83.19
40994;BME280;26722;43.212;27.932;2023-07-31T04:05:31;54945.09;;;-146.72;83.25
40994;BME280;26722;43.212;27.932;2023-07-31T04:07:57;54953.53;;;-146.72;82.07
40994;BME280;26722;43.212;27.932;2023-07-31T04:10:22;54949.31;;;-146.72;81.30
40994;BME280;26722;43.212;27.932;2023-07-31T04:12:48;54951.41;;;-146.72;81.11
40994;BME280;26722;43.212;27.932;2023-07-31T04:15:13;54928.19;;;-146.72;79.42
40994;BME280;26722;43.212;27.932;2023-07-31T04:17:39;54949.31;;;-146.72;79.37
40994;BME280;26722;43.212;27.932;2023-07-31T04:20:05;54932.41;;;-146.72;78.78
40994;BME280;26722;43.212;27.932;2023-07-31T04:22:30;54938.75;;;-146.72;77.15
40994;BME280;26722;43.212;27.932;2023-07-31T04:24:56;54923.97;;;-146.72;77.00
40994;BME280;26722;43.212;27.932;2023-07-31T04:27:21;54945.09;;;-146.72;77.56
40994;BME280;26722;43.212;27.932;2023-07-31T04:29:47;54917.63;;;-146.72;77.22
40994;BME280;26722;43.212;27.932;2023-07-31T04:32:13;54930.31;;;-146.72;76.09
40994;BME280;26722;43.212;27.932;2023-07-31T04:34:40;54909.19;;;-146.72;74.61
40994;BME280;26722;43.212;27.932;2023-07-31T04:37:06;54892.31;;;-146.72;72.27
40994;BME280;26722;43.212;27.932;2023-07-31T04:39:31;54900.75;;;-146.72;71.63
40994;BME280;26722;43.212;27.932;2023-07-31T04:41:57;54913.41;;;-146.72;70.85
40994;BME280;26722;43.212;27.932;2023-07-31T04:44:22;54926.09;;;-146.72;73.18
40994;BME280;26722;43.212;27.932;2023-07-31T04:46:47;54942.97;;;-146.72;74.10
40994;BME280;26722;43.212;27.932;2023-07-31T04:49:13;54942.97;;;-146.72;75.30
40994;BME280;26722;43.212;27.932;2023-07-31T04:51:38;54936.63;;;-146.72;75.96
40994;BME280;26722;43.212;27.932;2023-07-31T04:54:04;54930.31;;;-146.72;75.27
40994;BME280;26722;43.212;27.932;2023-07-31T04:56:29;54907.09;;;-146.72;74.88
40994;BME280;26722;43.212;27.932;2023-07-31T04:58:55;54930.31;;;-146.72;73.73
40994;BME280;26722;43.212;27.932;2023-07-31T05:01:20;54909.19;;;-146.72;72.55
40994;BME280;26722;43.212;27.932;2023-07-31T05:03:45;54902.84;;;-146.72;72.24
40994;BME280;26722;43.212;27.932;2023-07-31T05:06:11;54896.53;;;-146.72;70.39
40994;BME280;26722;43.212;27.932;2023-07-31T05:08:37;54898.63;;;-146.72;70.50
40994;BME280;26722;43.212;27.932;2023-07-31T05:11:02;54881.75;;;-146.72;69.45
40994;BME280;26722;43.212;27.932;2023-07-31T05:13:28;54904.97;;;-146.72;68.88
40994;BME280;26722;43.212;27.932;2023-07-31T05:15:53;54900.75;;;-146.72;68.39
40994;BME280;26722;43.212;27.932;2023-07-31T05:18:19;54888.09;;;-146.72;67.17
40994;BME280;26722;43.212;27.932;2023-07-31T05:20:44;54885.97;;;-146.72;66.51
40994;BME280;26722;43.212;27.932;2023-07-31T05:23:10;54879.63;;;-146.72;64.62
40994;BME280;26722;43.212;27.932;2023-07-31T05:25:35;54879.63;;;-146.72;64.19
40994;BME280;26722;43.212;27.932;2023-07-31T05:28:00;54883.84;;;-146.72;63.86
40994;BME280;26722;43.212;27.932;2023-07-31T05:30:26;54866.97;;;-146.72;63.75
40994;BME280;26722;43.212;27.932;2023-07-31T05:32:52;54877.53;;;-146.72;62.98
40994;BME280;26722;43.212;27.932;2023-07-31T05:35:17;54883.84;;;-146.72;62.72
40994;BME280;26722;43.212;27.932;2023-07-31T05:37:43;54888.09;;;-146.72;63.35
40994;BME280;26722;43.212;27.932;2023-07-31T05:40:08;54883.84;;;-146.72;63.76
40994;BME280;26722;43.212;27.932;2023-07-31T05:42:34;54875.41;;;-146.72;63.37
40994;BME280;26722;43.212;27.932;2023-07-31T05:45:01;54877.53;;;-146.72;61.47
40994;BME280;26722;43.212;27.932;2023-07-31T05:47:27;54869.09;;;-146.72;60.94
40994;BME280;26722;43.212;27.932;2023-07-31T05:49:52;54871.19;;;-146.72;60.97
40994;BME280;26722;43.212;27.932;2023-07-31T05:52:19;54871.19;;;-146.72;60.95
40994;BME280;26722;43.212;27.932;2023-07-31T05:54:44;54881.75;;;-146.72;60.80
40994;BME280;26722;43.212;27.932;2023-07-31T05:57:11;54869.09;;;-146.72;61.34
40994;BME280;26722;43.212;27.932;2023-07-31T05:59:36;54864.88;;;-146.72;60.70
40994;BME280;26722;43.212;27.932;2023-07-31T06:02:02;54875.41;;;-146.72;60.83
40994;BME280;26722;43.212;27.932;2023-07-31T06:04:27;54875.41;;;-146.72;60.13
40994;BME280;26722;43.212;27.932;2023-07-31T06:06:53;54869.09;;;-146.72;58.83
40994;BME280;26722;43.212;27.932;2023-07-31T06:09:19;54862.75;;;-146.72;58.53
40994;BME280;26722;43.212;27.932;2023-07-31T06:11:45;54860.63;;;-146.72;59.25
40994;BME280;26722;43.212;27.932;2023-07-31T06:14:11;54858.53;;;-146.72;58.50
40994;BME280;26722;43.212;27.932;2023-07-31T06:16:36;54854.31;;;-146.72;57.68
40994;BME280;26722;43.212;27.932;2023-07-31T06:19:02;54850.09;;;-146.72;56.91
40994;BME280;26722;43.212;27.932;2023-07-31T06:21:27;54858.53;;;-146.72;57.62
40994;BME280;26722;43.212;27.932;2023-07-31T06:23:53;54845.88;;;-146.72;57.15
40994;BME280;26722;43.212;27.932;2023-07-31T06:26:19;54850.09;;;-146.72;57.31
40994;BME280;26722;43.212;27.932;2023-07-31T06:28:44;54841.63;;;-146.72;56.72
40994;BME280;26722;43.212;27.932;2023-07-31T06:31:09;54850.09;;;-146.72;55.56
40994;BME280;26722;43.212;27.932;2023-07-31T06:33:35;54847.97;;;-146.72;54.29
40994;BME280;26722;43.212;27.932;2023-07-31T06:36:00;54852.19;;;-146.72;53.44
40994;BME280;26722;43.212;27.932;2023-07-31T06:38:26;54850.09;;;-146.72;55.60
40994;BME280;26722;43.212;27.932;2023-07-31T06:40:53;54877.53;;;-146.72;56.38
40994;BME280;26722;43.212;27.932;2023-07-31T06:43:18;54858.53;;;-146.72;55.58
40994;BME280;26722;43.212;27.932;2023-07-31T06:45:44;54858.53;;;-146.72;56.43
40994;BME280;26722;43.212;27.932;2023-07-31T06:48:11;54866.97;;;-146.72;56.15
40994;BME280;26722;43.212;27.932;2023-07-31T06:50:36;54888.09;;;-146.72;56.79
40994;BME280;26722;43.212;27.932;2023-07-31T06:53:02;54866.97;;;-146.72;58.28
40994;BME280;26722;43.212;27.932;2023-07-31T06:55:28;54871.19;;;-146.72;56.73
40994;BME280;26722;43.212;27.932;2023-07-31T06:57:54;54892.31;;;-146.72;59.19
40994;BME280;26722;43.212;27.932;2023-07-31T07:00:22;54888.09;;;-146.72;58.96
40994;BME280;26722;43.212;27.932;2023-07-31T07:02:48;54877.53;;;-146.72;58.30
40994;BME280;26722;43.212;27.932;2023-07-31T07:05:15;54866.97;;;-146.72;57.04
40994;BME280;26722;43.212;27.932;2023-07-31T07:07:41;54860.63;;;-146.72;56.13
40994;BME280;26722;43.212;27.932;2023-07-31T07:10:07;54869.09;;;-146.72;54.35
40994;BME280;26722;43.212;27.932;2023-07-31T07:12:33;54866.97;;;-146.72;54.83
40994;BME280;26722;43.212;27.932;2023-07-31T07:14:59;54860.63;;;-146.72;54.90
40994;BME280;26722;43.212;27.932;2023-07-31T07:17:25;54858.53;;;-146.72;54.80
40994;BME280;26722;43.212;27.932;2023-07-31T07:19:51;54852.19;;;-146.72;54.57
40994;BME280;26722;43.212;27.932;2023-07-31T07:22:17;54847.97;;;-146.72;54.56
40994;BME280;26722;43.212;27.932;2023-07-31T07:24:43;54837.41;;;-146.72;53.34
40994;BME280;26722;43.212;27.932;2023-07-31T07:27:08;54852.19;;;-146.72;52.19
40994;BME280;26722;43.212;27.932;2023-07-31T07:29:34;54839.53;;;-146.72;52.18
40994;BME280;26722;43.212;27.932;2023-07-31T07:32:01;54850.09;;;-146.72;51.24
40994;BME280;26722;43.212;27.932;2023-07-31T07:34:27;54852.19;;;-146.72;51.19
40994;BME280;26722;43.212;27.932;2023-07-31T07:36:53;54833.19;;;-146.72;51.53
40994;BME280;26722;43.212;27.932;2023-07-31T07:39:19;54843.75;;;-146.72;51.44
40994;BME280;26722;43.212;27.932;2023-07-31T07:41:45;54845.88;;;-146.72;51.37
40994;BME280;26722;43.212;27.932;2023-07-31T07:44:12;54837.41;;;-146.72;51.50
40994;BME280;26722;43.212;27.932;2023-07-31T07:46:37;54850.09;;;-146.72;49.62
40994;BME280;26722;43.212;27.932;2023-07-31T07:49:03;54828.97;;;-146.72;48.71
40994;BME280;26722;43.212;27.932;2023-07-31T07:51:28;54831.09;;;-146.72;47.86
40994;BME280;26722;43.212;27.932;2023-07-31T07:53:55;54833.19;;;-146.72;47.99
40994;BME280;26722;43.212;27.932;2023-07-31T07:56:21;54831.09;;;-146.72;48.13
40994;BME280;26722;43.212;27.932;2023-07-31T07:58:49;54831.09;;;-146.72;48.20
40994;BME280;26722;43.212;27.932;2023-07-31T08:01:15;54835.31;;;-146.72;48.25
40994;BME280;26722;43.212;27.932;2023-07-31T08:03:40;54828.97;;;-146.72;47.78
40994;BME280;26722;43.212;27.932;2023-07-31T08:06:06;54828.97;;;-146.72;48.01
40994;BME280;26722;43.212;27.932;2023-07-31T08:08:33;54831.09;;;-146.72;48.88
40994;BME280;26722;43.212;27.932;2023-07-31T08:10:58;54845.88;;;-146.72;49.38
40994;BME280;26722;43.212;27.932;2023-07-31T08:13:24;54835.31;;;-146.72;48.02
40994;BME280;26722;43.212;27.932;2023-07-31T08:15:49;54843.75;;;-146.72;46.38
40994;BME280;26722;43.212;27.932;2023-07-31T08:18:15;54843.75;;;-146.72;46.86
40994;BME280;26722;43.212;27.932;2023-07-31T08:20:41;54843.75;;;-146.72;46.04
40994;BME280;26722;43.212;27.932;2023-07-31T08:23:06;54852.19;;;-146.72;45.93
40994;BME280;26722;43.212;27.932;2023-07-31T08:25:34;54843.75;;;-146.72;46.27
40994;BME280;26722;43.212;27.932;2023-07-31T08:28:00;54841.63;;;-146.72;46.35
40994;BME280;26722;43.212;27.932;2023-07-31T08:30:26;54824.75;;;-146.72;51.19
40994;BME280;26722;43.212;27.932;2023-07-31T08:32:51;54856.41;;;-146.72;52.17
40994;BME280;26722;43.212;27.932;2023-07-31T08:35:17;54841.63;;;-146.72;52.70
40994;BME280;26722;43.212;27.932;2023-07-31T08:37:42;54839.53;;;-146.72;52.68
40994;BME280;26722;43.212;27.932;2023-07-31T08:40:08;54845.88;;;-146.72;51.79
40994;BME280;26722;43.212;27.932;2023-07-31T08:42:34;54862.75;;;-146.72;49.91
40994;BME280;26722;43.212;27.932;2023-07-31T08:44:59;54826.88;;;-146.72;50.70
40994;BME280;26722;43.212;27.932;2023-07-31T08:47:27;54833.19;;;-146.72;52.40
40994;BME280;26722;43.212;27.932;2023-07-31T08:49:54;54856.41;;;-146.72;52.79
40994;BME280;26722;43.212;27.932;2023-07-31T08:52:21;54854.31;;;-146.72;54.76
40994;BME280;26722;43.212;27.932;2023-07-31T08:54:46;54837.41;;;-146.72;53.39
40994;BME280;26722;43.212;27.932;2023-07-31T08:57:12;54852.19;;;-146.72;53.36
40994;BME280;26722;43.212;27.932;2023-07-31T08:59:38;54850.09;;;-146.72;52.59
40994;BME280;26722;43.212;27.932;2023-07-31T09:02:08;54847.97;;;-146.72;51.97
40994;BME280;26722;43.212;27.932;2023-07-31T09:04:34;54854.31;;;-146.72;51.59
40994;BME280;26722;43.212;27.932;2023-07-31T09:07:01;54858.53;;;-146.72;52.25
40994;BME280;26722;43.212;27.932;2023-07-31T09:09:29;54858.53;;;-146.72;53.35
40994;BME280;26722;43.212;27.932;2023-07-31T09:11:54;54860.63;;;-146.72;53.25
40994;BME280;26722;43.212;27.932;2023-07-31T09:14:21;54850.09;;;-146.72;53.99
40994;BME280;26722;43.212;27.932;2023-07-31T09:16:54;54856.41;;;-146.72;53.36
40994;BME280;26722;43.212;27.932;2023-07-31T09:19:33;54841.63;;;-146.72;53.46
40994;BME280;26722;43.212;27.932;2023-07-31T09:22:00;54833.19;;;-146.72;53.26
40994;BME280;26722;43.212;27.932;2023-07-31T09:24:30;54833.19;;;-146.72;52.67
40994;BME280;26722;43.212;27.932;2023-07-31T09:26:57;54850.09;;;-146.72;52.43
40994;BME280;26722;43.212;27.932;2023-07-31T09:29:24;54841.63;;;-146.72;52.35
40994;BME280;26722;43.212;27.932;2023-07-31T09:31:50;54837.41;;;-146.72;51.78
40994;BME280;26722;43.212;27.932;2023-07-31T09:34:16;54837.41;;;-146.72;50.81
40994;BME280;26722;43.212;27.932;2023-07-31T09:36:49;54843.75;;;-146.72;51.07
40994;BME280;26722;43.212;27.932;2023-07-31T09:39:16;54824.75;;;-146.72;50.62
40994;BME280;26722;43.212;27.932;2023-07-31T09:41:54;54833.19;;;-146.72;49.31
40994;BME280;26722;43.212;27.932;2023-07-31T09:44:19;54826.88;;;-146.72;47.69
40994;BME280;26722;43.212;27.932;2023-07-31T09:46:45;54812.09;;;-146.72;46.16
40994;BME280;26722;43.212;27.932;2023-07-31T09:49:12;54816.31;;;-146.72;45.65
40994;BME280;26722;43.212;27.932;2023-07-31T09:51:38;54812.09;;;-146.72;46.70
40994;BME280;26722;43.212;27.932;2023-07-31T09:54:14;54812.09;;;-146.72;46.95
40994;BME280;26722;43.212;27.932;2023-07-31T09:56:47;54807.88;;;-146.72;47.16
40994;BME280;26722;43.212;27.932;2023-07-31T09:59:18;54809.97;;;-146.72;47.04
40994;BME280;26722;43.212;27.932;2023-07-31T10:01:45;54797.31;;;-146.72;44.35
40994;BME280;26722;43.212;27.932;2023-07-31T10:04:12;54803.63;;;-146.72;45.71
40994;BME280;26722;43.212;27.932;2023-07-31T10:06:39;54814.19;;;-146.72;46.76
40994;BME280;26722;43.212;27.932;2023-07-31T10:09:07;54816.31;;;-146.72;46.07
40994;BME280;26722;43.212;27.932;2023-07-31T10:11:43;54828.97;;;-146.72;43.56
40994;BME280;26722;43.212;27.932;2023-07-31T10:14:18;54824.75;;;-146.72;44.35
40994;BME280;26722;43.212;27.932;2023-07-31T10:16:45;54816.31;;;-146.72;47.40
40994;BME280;26722;43.212;27.932;2023-07-31T10:19:10;54818.41;;;-146.72;47.36
40994;BME280;26722;43.212;27.932;2023-07-31T10:21:37;54822.63;;;-146.72;45.47
40994;BME280;26722;43.212;27.932;2023-07-31T10:24:03;54822.63;;;-146.72;45.33
40994;BME280;26722;43.212;27.932;2023-07-31T10:26:31;54833.19;;;-146.72;43.68
40994;BME280;26722;43.212;27.932;2023-07-31T10:28:58;54816.31;;;-146.72;43.82
40994;BME280;26722;43.212;27.932;2023-07-31T10:31:24;54833.19;;;-146.72;44.50
40994;BME280;26722;43.212;27.932;2023-07-31T10:33:51;54856.41;;;-146.72;46.30
40994;BME280;26722;43.212;27.932;2023-07-31T10:36:18;54839.53;;;-146.72;45.78
40994;BME280;26722;43.212;27.932;2023-07-31T10:38:44;54852.19;;;-146.72;46.15
40994;BME280;26722;43.212;27.932;2023-07-31T10:41:10;54841.63;;;-146.72;46.72
40994;BME280;26722;43.212;27.932;2023-07-31T10:43:39;54837.41;;;-146.72;45.74
40994;BME280;26722;43.212;27.932;2023-07-31T10:46:14;54837.41;;;-146.72;44.45
40994;BME280;26722;43.212;27.932;2023-07-31T10:48:41;54833.19;;;-146.72;44.58
40994;BME280;26722;43.212;27.932;2023-07-31T10:51:11;54841.63;;;-146.72;44.80
40994;BME280;26722;43.212;27.932;2023-07-31T10:53:37;54833.19;;;-146.72;43.52
40994;BME280;26722;43.212;27.932;2023-07-31T10:56:08;54818.41;;;-146.72;44.48
40994;BME280;26722;43.212;27.932;2023-07-31T10:58:34;54820.53;;;-146.72;43.69
40994;BME280;26722;43.212;27.932;2023-07-31T11:01:05;54831.09;;;-146.72;43.31
40994;BME280;26722;43.212;27.932;2023-07-31T11:03:50;54828.97;;;-146.72;44.70
40994;BME280;26722;43.212;27.932;2023-07-31T11:06:18;54843.75;;;-146.72;45.96
40994;BME280;26722;43.212;27.932;2023-07-31T11:08:49;54841.63;;;-146.72;45.67
40994;BME280;26722;43.212;27.932;2023-07-31T11:11:17;54839.53;;;-146.72;46.58
40994;BME280;26722;43.212;27.932;2023-07-31T11:13:50;54841.63;;;-146.72;46.23
40994;BME280;26722;43.212;27.932;2023-07-31T11:16:20;54837.41;;;-146.72;46.83
40994;BME280;26722;43.212;27.932;2023-07-31T11:18:47;54845.88;;;-146.72;46.64
40994;BME280;26722;43.212;27.932;2023-07-31T11:21:22;54854.31;;;-146.72;46.33
40994;BME280;26722;43.212;27.932;2023-07-31T11:23:49;54858.53;;;-146.72;46.76
40994;BME280;26722;43.212;27.932;2023-07-31T11:26:16;54854.31;;;-146.72;47.26
40994;BME280;26722;43.212;27.932;2023-07-31T11:28:41;54841.63;;;-146.72;47.47
40994;BME280;26722;43.212;27.932;2023-07-31T11:31:10;54839.53;;;-146.72;46.31
40994;BME280;26722;43.212;27.932;2023-07-31T11:33:36;54843.75;;;-146.72;46.79
40994;BME280;26722;43.212;27.932;2023-07-31T11:36:02;54847.97;;;-146.72;46.96
40994;BME280;26722;43.212;27.932;2023-07-31T11:38:29;54847.97;;;-146.72;47.30
40994;BME280;26722;43.212;27.932;2023-07-31T11:41:03;54852.19;;;-146.72;46.62
40994;BME280;26722;43.212;27.932;2023-07-31T11:43:29;54837.41;;;-146.72;46.80
40994;BME280;26722;43.212;27.932;2023-07-31T11:45:57;54852.19;;;-146.72;46.46
40994;BME280;26722;43.212;27.932;2023-07-31T11:48:25;54854.31;;;-146.72;46.48
40994;BME280;26722;43.212;27.932;2023-07-31T11:50:53;54841.63;;;-146.72;47.32
40994;BME280;26722;43.212;27.932;2023-07-31T11:53:26;54828.97;;;-146.72;47.69
40994;BME280;26722;43.212;27.932;2023-07-31T11:55:54;54837.41;;;-146.72;47.19
40994;BME280;26722;43.212;27.932;2023-07-31T11:58:20;54833.19;;;-146.72;47.48
40994;BME280;26722;43.212;27.932;2023-07-31T12:00:47;54852.19;;;-146.72;47.40
40994;BME280;26722;43.212;27.932;2023-07-31T12:03:13;54845.88;;;-146.72;47.85
40994;BME280;26722;43.212;27.932;2023-07-31T12:05:39;54862.75;;;-146.72;49.38
40994;BME280;26722;43.212;27.932;2023-07-31T12:08:13;54866.97;;;-146.72;50.04
40994;BME280;26722;43.212;27.932;2023-07-31T12:10:39;54854.31;;;-146.72;50.52
40994;BME280;26722;43.212;27.932;2023-07-31T12:13:20;54850.09;;;-146.72;51.27
40994;BME280;26722;43.212;27.932;2023-07-31T12:15:46;54852.19;;;-146.72;51.46
40994;BME280;26722;43.212;27.932;2023-07-31T12:18:14;54871.19;;;-146.72;51.63
40994;BME280;26722;43.212;27.932;2023-07-31T12:20:45;54869.09;;;-146.72;52.19
40994;BME280;26722;43.212;27.932;2023-07-31T12:23:18;54864.88;;;-146.72;52.58
40994;BME280;26722;43.212;27.932;2023-07-31T12:25:44;54850.09;;;-146.72;52.85
40994;BME280;26722;43.212;27.932;2023-07-31T12:28:10;54862.75;;;-146.72;51.94
40994;BME280;26722;43.212;27.932;2023-07-31T12:30:40;54845.88;;;-146.72;52.76
40994;BME280;26722;43.212;27.932;2023-07-31T12:33:07;54862.75;;;-146.72;54.12
40994;BME280;26722;43.212;27.932;2023-07-31T12:35:38;54854.31;;;-146.72;56.65